Time;durP1;ratioP1;P1;durP2;ratioP2;P2;SDS_P1;SDS_P2;PMS_P1;PMS_P2;Temp;Humidity;BMP_temperature;BMP_pressure;BME280_temperature;BME280_humidity;BME280_pressure;Samples;Min_cycle;Max_cycle;Signal;HPM_P1;HPM_P2
2022/07/19 00:00:14;;;;;;;11.40;4.60;;;19.70;99.90;;;;;;4994714;28;20053;-56
2022/07/19 00:02:41;;;;;;;8.77;4.97;;;19.70;99.90;;;;;;4976825;28;20058;-54
2022/07/19 00:05:09;;;;;;;10.23;4.93;;;19.60;99.90;;;;;;4994527;28;20050;-55
2022/07/19 00:07:35;;;;;;;10.15;5.10;;;19.10;99.90;;;;;;4994602;28;20050;-55
2022/07/19 00:10:01;;;;;;;8.85;5.00;;;19.50;99.90;;;;;;4994463;28;20467;-55
2022/07/19 00:12:27;;;;;;;9.38;5.18;;;19.50;99.90;;;;;;4976833;28;20046;-56
2022/07/19 00:14:53;;;;;;;10.35;4.70;;;19.50;99.90;;;;;;4994008;28;20057;-55
2022/07/19 00:17:19;;;;;;;7.63;4.80;;;19.50;99.90;;;;;;4994229;28;20050;-58
2022/07/19 00:19:44;;;;;;;8.93;5.28;;;19.50;99.90;;;;;;4994158;28;20046;-59
2022/07/19 00:22:10;;;;;;;8.77;4.53;;;19.70;99.90;;;;;;4994180;28;20104;-59
2022/07/19 00:24:36;;;;;;;9.30;4.90;;;19.30;99.90;;;;;;4993142;28;20157;-59
2022/07/19 00:27:02;;;;;;;10.07;4.75;;;19.30;99.90;;;;;;4993609;28;20554;-59
2022/07/19 00:29:27;;;;;;;10.57;5.00;;;19.30;99.90;;;;;;4976444;28;20406;-59
2022/07/19 00:31:55;;;;;;;9.07;4.82;;;19.30;99.90;;;;;;4976361;28;20402;-59
2022/07/19 00:34:20;;;;;;;8.65;4.90;;;19.30;99.90;;;;;;4994025;28;20046;-59
2022/07/19 00:36:46;;;;;;;13.82;5.10;;;19.20;99.90;;;;;;4993758;28;20045;-58
2022/07/19 00:39:12;;;;;;;5.93;4.28;;;19.20;99.90;;;;;;4993879;28;20074;-58
2022/07/19 00:41:42;;;;;;;8.35;4.70;;;18.70;99.90;;;;;;4993860;28;20125;-58
2022/07/19 00:44:09;;;;;;;11.77;4.72;;;19.10;99.90;;;;;;4975999;28;20057;-59
2022/07/19 00:46:36;;;;;;;9.02;4.95;;;19.10;99.90;;;;;;4993600;28;20491;-58
2022/07/19 00:49:03;;;;;;;11.20;4.60;;;19.10;99.90;;;;;;4976038;28;20490;-58
2022/07/19 00:51:30;;;;;;;7.70;4.72;;;19.00;99.90;;;;;;4976186;28;20058;-58
2022/07/19 00:53:58;;;;;;;10.93;4.95;;;19.10;99.90;;;;;;4993514;28;20042;-59
2022/07/19 00:56:26;;;;;;;8.75;4.45;;;19.10;99.90;;;;;;4993366;28;20086;-58
2022/07/19 00:58:53;;;;;;;8.07;4.70;;;18.80;99.90;;;;;;4993403;28;20081;-59
2022/07/19 01:01:20;;;;;;;6.82;4.70;;;19.10;99.90;;;;;;5037754;22;20161;-74
2022/07/19 01:03:48;;;;;;;7.63;5.18;;;19.10;99.90;;;;;;5014785;28;20407;-73
2022/07/19 01:06:22;;;;;;;;;;;19.10;99.90;;;;;;5018390;28;20593;-72
2022/07/19 01:08:52;;;;;;;9.80;5.50;;;;;;;;;;5013331;28;20008;-72
2022/07/19 01:11:20;;;;;;;8.60;4.78;;;19.20;99.90;;;;;;5014773;28;20854;-73
2022/07/19 01:13:48;;;;;;;10.93;5.50;;;19.00;99.90;;;;;;5014728;28;20061;-75
2022/07/19 01:16:16;;;;;;;8.73;5.40;;;19.00;99.90;;;;;;5012468;28;20507;-73
2022/07/19 01:18:42;;;;;;;13.20;5.60;;;19.00;99.90;;;;;;5003799;28;20058;-73
2022/07/19 01:21:21;;;;;;;11.70;5.70;;;19.00;99.90;;;;;;5020533;28;20570;-72
2022/07/19 01:23:48;;;;;;;14.27;5.53;;;19.00;99.90;;;;;;4983382;28;20057;-73
2022/07/19 01:26:15;;;;;;;11.50;5.30;;;19.00;99.90;;;;;;5002118;28;20056;-73
2022/07/19 01:28:41;;;;;;;10.70;5.00;;;19.00;99.90;;;;;;4998220;28;20097;-73
2022/07/19 01:31:10;;;;;;;10.05;5.07;;;19.00;99.90;;;;;;5014140;28;20057;-73
2022/07/19 01:33:44;;;;;;;8.05;4.88;;;18.80;99.90;;;;;;5014410;28;20128;-73
2022/07/19 01:36:10;;;;;;;8.20;5.13;;;18.90;99.90;;;;;;4997706;28;20053;-73
2022/07/19 01:38:37;;;;;;;9.25;4.97;;;18.80;99.90;;;;;;4997902;28;20053;-73
2022/07/19 01:41:07;;;;;;;9.60;5.10;;;18.80;99.90;;;;;;5032118;28;20045;-74
2022/07/19 01:43:35;;;;;;;11.23;5.28;;;18.70;99.90;;;;;;5031939;28;20041;-74
2022/07/19 01:46:07;;;;;;;6.88;4.70;;;18.60;99.90;;;;;;5014397;28;20045;-73
2022/07/19 01:48:33;;;;;;;9.70;4.85;;;18.50;99.90;;;;;;5014294;28;20045;-73
2022/07/19 01:51:03;;;;;;;9.50;5.00;;;18.60;99.90;;;;;;5014583;28;20049;-73
2022/07/19 01:53:29;;;;;;;13.70;5.20;;;18.60;99.90;;;;;;5014030;28;20053;-73
2022/07/19 01:55:54;;;;;;;10.52;5.32;;;18.40;99.90;;;;;;5014153;28;20076;-74
2022/07/19 01:58:20;;;;;;;12.00;5.28;;;19.10;99.90;;;;;;5013807;28;20057;-73
2022/07/19 02:00:51;;;;;;;9.40;5.22;;;18.60;99.90;;;;;;5014252;28;20096;-73
2022/07/19 02:03:22;;;;;;;6.55;4.90;;;18.60;99.90;;;;;;4997166;28;20064;-73
2022/07/19 02:05:51;;;;;;;8.32;4.97;;;18.50;99.90;;;;;;5013898;28;20191;-73
2022/07/19 02:08:20;;;;;;;8.23;4.60;;;18.50;99.90;;;;;;5014780;28;20144;-73
2022/07/19 02:10:47;;;;;;;10.27;5.13;;;18.50;99.90;;;;;;4978266;28;20134;-74
2022/07/19 02:13:14;;;;;;;9.80;5.68;;;18.50;99.90;;;;;;4978521;28;20478;-72
2022/07/19 02:15:40;;;;;;;8.63;5.00;;;18.40;99.90;;;;;;4978583;28;20107;-73
2022/07/19 02:18:06;;;;;;;10.13;4.85;;;17.80;99.90;;;;;;5012677;28;20053;-73
2022/07/19 02:20:41;;;;;;;8.23;5.35;;;;;;;;;;4994039;28;20062;-72
2022/07/19 02:23:09;;;;;;;10.85;5.05;;;18.40;99.90;;;;;;4994152;28;20058;-73
2022/07/19 02:25:35;;;;;;;12.10;5.22;;;;;;;;;;4977697;28;20046;-73
2022/07/19 02:28:01;;;;;;;8.77;5.50;;;18.40;99.90;;;;;;4993609;28;20054;-73
2022/07/19 02:30:30;;;;;;;9.05;5.47;;;18.80;99.90;;;;;;4994036;28;20049;-73
2022/07/19 02:32:56;;;;;;;16.85;5.63;;;17.90;99.90;;;;;;4992556;28;20124;-74
2022/07/19 02:35:23;;;;;;;13.40;5.32;;;18.40;99.90;;;;;;4977348;28;20136;-73
2022/07/19 02:37:51;;;;;;;11.40;5.80;;;18.40;99.90;;;;;;5010672;28;20061;-74
2022/07/19 02:40:17;;;;;;;12.65;5.90;;;18.40;99.90;;;;;;4962069;28;20441;-73
2022/07/19 02:42:43;;;;;;;10.52;5.15;;;18.40;99.90;;;;;;4976908;28;20515;-73
2022/07/19 02:45:14;;;;;;;8.07;5.18;;;18.00;99.90;;;;;;5010971;28;20053;-73
2022/07/19 02:47:40;;;;;;;12.45;5.82;;;18.30;99.90;;;;;;4993758;28;20049;-74
2022/07/19 02:50:08;;;;;;;11.15;5.60;;;18.40;99.90;;;;;;4981945;28;20608;-74
2022/07/19 02:52:40;;;;;;;9.88;5.53;;;18.30;99.90;;;;;;4999106;28;20050;-74
2022/07/19 02:55:06;;;;;;;10.15;5.53;;;18.10;99.90;;;;;;4981682;28;20484;-73
2022/07/19 02:57:33;;;;;;;13.02;5.97;;;17.60;99.90;;;;;;4998003;28;20065;-73
2022/07/19 02:59:59;;;;;;;10.55;5.75;;;18.20;99.90;;;;;;4997799;28;20050;-73
2022/07/19 03:02:27;;;;;;;11.95;6.00;;;17.90;99.90;;;;;;5014926;28;20057;-73
2022/07/19 03:04:58;;;;;;;13.73;6.07;;;18.20;99.90;;;;;;4982067;28;20061;-73
2022/07/19 03:07:28;;;;;;;9.90;5.70;;;17.70;99.90;;;;;;4982702;28;20062;-73
2022/07/19 03:09:57;;;;;;;10.98;6.45;;;;;;;;;;5014070;28;20058;-73
2022/07/19 03:12:24;;;;;;;12.65;5.93;;;18.30;99.90;;;;;;4997926;28;20061;-73
2022/07/19 03:14:50;;;;;;;13.25;6.57;;;18.20;99.90;;;;;;5015172;28;20046;-74
2022/07/19 03:17:16;;;;;;;10.43;6.15;;;18.30;99.90;;;;;;4996758;28;20108;-73
2022/07/19 03:19:41;;;;;;;10.10;6.20;;;18.60;99.90;;;;;;4997203;28;20507;-73
2022/07/19 03:22:07;;;;;;;15.43;6.90;;;18.40;99.90;;;;;;4997062;28;20061;-74
2022/07/19 03:24:33;;;;;;;13.15;6.45;;;18.50;99.90;;;;;;4980685;28;20061;-74
2022/07/19 03:26:59;;;;;;;9.75;5.90;;;18.20;99.90;;;;;;5014804;28;20069;-73
2022/07/19 03:29:24;;;;;;;10.60;6.18;;;18.10;99.90;;;;;;4981074;28;20054;-74
2022/07/19 03:31:51;;;;;;;12.88;6.50;;;18.40;99.90;;;;;;5014904;28;20049;-74
2022/07/19 03:34:38;;;;;;;10.57;6.38;;;18.30;99.90;;;;;;5014721;28;20407;-74
2022/07/19 03:37:04;;;;;;;10.77;6.57;;;18.30;99.90;;;;;;4981022;28;20053;-74
2022/07/19 03:39:38;;;;;;;15.00;6.55;;;18.20;99.90;;;;;;4997687;28;20108;-74
2022/07/19 03:42:05;;;;;;;11.65;6.75;;;18.90;99.90;;;;;;4980607;28;20112;-74
2022/07/19 03:44:35;;;;;;;20.85;7.05;;;18.30;99.90;;;;;;5013337;28;20096;-74
2022/07/19 03:47:01;;;;;;;18.15;7.18;;;18.10;99.90;;;;;;4964466;28;20058;-74
2022/07/19 03:49:36;;;;;;;11.93;7.10;;;;;;;;;;4981912;28;20048;-74
2022/07/19 03:52:05;;;;;;;17.20;7.00;;;18.50;99.90;;;;;;4996774;28;20061;-74
2022/07/19 03:54:33;;;;;;;18.05;7.75;;;18.30;99.90;;;;;;4997166;28;20050;-74
2022/07/19 03:57:01;;;;;;;14.95;7.35;;;18.30;99.90;;;;;;4997674;28;20050;-74
2022/07/19 03:59:27;;;;;;;12.98;6.97;;;18.30;99.90;;;;;;4980155;28;20053;-75
2022/07/19 04:01:54;;;;;;;11.85;7.25;;;18.50;99.90;;;;;;4995460;28;20415;-73
2022/07/19 04:04:27;;;;;;;12.40;7.68;;;18.40;99.90;;;;;;5013080;28;20064;-74
2022/07/19 04:06:55;;;;;;;12.40;6.95;;;18.40;99.90;;;;;;5014621;28;20060;-73
2022/07/19 04:09:23;;;;;;;13.98;7.20;;;18.40;99.90;;;;;;4996369;28;20058;-75
2022/07/19 04:11:53;;;;;;;14.02;6.75;;;18.40;99.90;;;;;;4997141;28;20408;-74
2022/07/19 04:14:22;;;;;;;19.55;7.18;;;18.40;99.90;;;;;;4980685;28;20058;-74
2022/07/19 04:16:48;;;;;;;16.88;7.80;;;18.40;99.90;;;;;;4963965;28;20050;-74
2022/07/19 04:19:14;;;;;;;15.27;7.32;;;20.40;99.90;;;;;;5012765;28;20405;-74
2022/07/19 04:21:39;;;;;;;16.42;7.80;;;18.50;99.90;;;;;;4996582;28;20060;-74
2022/07/19 04:24:08;;;;;;;18.95;7.60;;;19.00;99.90;;;;;;4981610;28;20046;-73
2022/07/19 04:26:35;;;;;;;13.35;7.45;;;18.80;99.90;;;;;;4996832;28;20053;-74
2022/07/19 04:29:01;;;;;;;16.60;7.18;;;18.70;99.90;;;;;;5013719;28;20608;-74
2022/07/19 04:31:29;;;;;;;13.98;7.75;;;19.50;99.90;;;;;;4979406;28;20058;-74
2022/07/19 04:33:59;;;;;;;26.30;7.22;;;18.80;99.90;;;;;;4996822;28;20060;-74
2022/07/19 04:36:29;;;;;;;19.40;7.30;;;18.80;99.90;;;;;;4996164;28;20089;-74
2022/07/19 04:39:19;;;;;;;15.40;7.50;;;19.50;99.90;;;;;;5012999;28;20053;-74
2022/07/19 04:41:46;;;;;;;13.27;7.38;;;19.10;99.90;;;;;;4982740;28;20196;-74
2022/07/19 04:44:22;;;;;;;13.80;7.20;;;19.20;99.90;;;;;;4979432;28;20053;-74
2022/07/19 04:46:51;;;;;;;14.05;7.22;;;20.00;99.90;;;;;;5013765;28;20062;-74
2022/07/19 04:49:33;;;;;;;16.85;6.75;;;20.10;99.90;;;;;;5011452;28;20108;-74
2022/07/19 04:52:01;;;;;;;;;;;20.30;99.90;;;;;;4967033;28;20162;-74
2022/07/19 04:54:27;;;;;;;16.67;6.75;;;21.40;99.90;;;;;;5012202;28;19925;-74
2022/07/19 04:56:54;;;;;;;17.33;7.10;;;21.90;99.90;;;;;;5021064;28;20048;-74
2022/07/19 04:59:27;;;;;;;11.43;6.45;;;22.10;99.90;;;;;;5013936;28;20049;-74
2022/07/19 05:01:58;;;;;;;14.65;6.60;;;22.80;99.90;;;;;;5012878;28;20065;-75
2022/07/19 05:04:27;;;;;;;11.52;6.90;;;23.60;99.90;;;;;;5013333;28;20059;-75
2022/07/19 05:06:59;;;;;;;12.65;7.00;;;24.00;97.60;;;;;;4981370;28;20125;-74
2022/07/19 05:09:27;;;;;;;15.88;7.18;;;24.90;98.10;;;;;;5012739;28;20053;-75
2022/07/19 05:12:05;;;;;;;14.98;6.88;;;25.00;92.80;;;;;;5012967;28;20053;-75
2022/07/19 05:14:43;;;;;;;13.05;6.75;;;25.60;90.60;;;;;;5015123;28;20050;-74
2022/07/19 05:17:18;;;;;;;11.23;7.10;;;26.10;86.80;;;;;;5013856;28;20046;-74
2022/07/19 05:19:44;;;;;;;10.98;6.45;;;26.60;82.30;;;;;;5031240;28;20538;-75
2022/07/19 05:22:10;;;;;;;13.02;6.78;;;27.30;78.20;;;;;;5031454;28;20049;-75
2022/07/19 05:24:47;;;;;;;13.77;6.10;;;28.10;79.30;;;;;;5012788;28;20081;-73
2022/07/19 05:27:23;;;;;;;11.00;6.10;;;28.40;77.70;;;;;;5012596;28;20049;-75
2022/07/19 05:29:52;;;;;;;12.80;6.10;;;28.50;68.10;;;;;;4993992;28;20050;-75
2022/07/19 05:32:19;;;;;;;10.43;5.82;;;28.90;66.00;;;;;;4976908;28;20192;-74
2022/07/19 05:34:47;;;;;;;9.57;5.75;;;29.30;63.30;;;;;;4979295;28;20197;-75
2022/07/19 05:37:28;;;;;;;12.20;5.78;;;29.70;60.80;;;;;;5012372;28;20515;-75
2022/07/19 05:39:58;;;;;;;8.13;5.55;;;30.10;59.20;;;;;;4962124;28;20050;-75
2022/07/19 05:42:31;;;;;;;8.90;5.10;;;30.40;57.50;;;;;;4993724;28;20054;-75
2022/07/19 05:45:08;;;;;;;14.27;5.55;;;30.70;55.90;;;;;;4990753;28;20058;-75
2022/07/19 05:47:43;;;;;;;9.38;5.25;;;30.70;54.90;;;;;;4994381;28;20111;-75
2022/07/19 05:50:11;;;;;;;8.60;5.55;;;31.40;59.80;;;;;;5011956;28;20058;-75
2022/07/19 05:52:41;;;;;;;8.73;5.40;;;31.30;53.20;;;;;;4994850;28;20069;-74
2022/07/19 05:55:10;;;;;;;20.85;5.45;;;31.60;52.30;;;;;;4979318;28;20531;-74
2022/07/19 05:57:41;;;;;;;16.02;5.15;;;31.90;51.60;;;;;;4978518;28;20058;-75
2022/07/19 06:00:11;;;;;;;11.63;5.53;;;32.30;50.30;;;;;;4993390;28;20063;-75
2022/07/19 06:02:36;;;;;;;12.25;4.90;;;32.50;49.60;;;;;;4993129;28;20093;-75
2022/07/19 06:05:06;;;;;;;7.55;4.85;;;32.70;49.10;;;;;;4978256;28;20054;-75
2022/07/19 06:07:35;;;;;;;11.70;5.07;;;33.20;52.40;;;;;;4978674;28;20116;-75
2022/07/19 06:10:01;;;;;;;11.02;5.05;;;33.30;47.50;;;;;;4978110;28;20056;-75
2022/07/19 06:12:27;;;;;;;15.30;5.20;;;33.40;46.70;;;;;;4961423;28;20128;-75
2022/07/19 06:14:59;;;;;;;8.35;4.78;;;33.50;46.20;;;;;;4995101;28;20072;-75
2022/07/19 06:17:35;;;;;;;11.25;5.22;;;33.80;45.80;;;;;;5011702;28;20050;-75
2022/07/19 06:20:11;;;;;;;8.82;4.88;;;34.10;45.00;;;;;;4995424;28;20437;-75
2022/07/19 06:22:36;;;;;;;11.23;5.07;;;34.40;45.90;;;;;;4977591;28;20163;-75
2022/07/19 06:25:10;;;;;;;9.98;5.18;;;34.80;49.40;;;;;;5010798;28;20093;-75
2022/07/19 06:27:36;;;;;;;17.17;5.20;;;34.80;43.60;;;;;;4961638;28;20054;-75
2022/07/19 06:30:04;;;;;;;8.85;4.70;;;35.00;43.50;;;;;;4993413;28;20416;-75
2022/07/19 06:32:35;;;;;;;12.50;5.20;;;35.00;43.10;;;;;;4993705;28;20125;-75
2022/07/19 06:35:05;;;;;;;12.25;4.88;;;34.80;48.00;;;;;;4993250;28;20053;-75
2022/07/19 06:37:30;;;;;;;9.30;4.97;;;35.20;42.60;;;;;;4993023;28;20054;-75
2022/07/19 06:39:57;;;;;;;10.73;4.47;;;35.20;42.30;;;;;;4946194;28;20500;-75
2022/07/19 06:42:23;;;;;;;11.80;4.57;;;35.30;41.90;;;;;;4977486;28;20140;-75
2022/07/19 06:44:48;;;;;;;13.02;4.80;;;35.70;47.80;;;;;;4977735;28;20137;-75
2022/07/19 06:47:14;;;;;;;12.77;4.78;;;35.70;41.60;;;;;;4993911;28;20082;-75
2022/07/19 06:49:40;;;;;;;12.15;4.55;;;36.00;45.50;;;;;;5011207;28;20511;-75
2022/07/19 06:52:06;;;;;;;9.35;4.47;;;36.10;41.00;;;;;;4977799;28;20055;-75
2022/07/19 06:54:35;;;;;;;8.63;4.53;;;36.30;46.90;;;;;;4977774;28;20046;-75
2022/07/19 06:57:06;;;;;;;9.57;4.50;;;36.80;45.80;;;;;;4993868;28;20054;-75
2022/07/19 06:59:33;;;;;;;11.77;4.60;;;36.60;40.30;;;;;;4993520;28;20064;-75
2022/07/19 07:02:00;;;;;;;7.05;4.20;;;38.20;47.20;;;;;;4976916;28;20045;-75
2022/07/19 07:04:26;;;;;;;8.15;4.15;;;37.50;44.60;;;;;;5011478;28;20070;-75
2022/07/19 07:06:52;;;;;;;10.35;4.50;;;37.10;39.60;;;;;;5011522;28;20456;-75
2022/07/19 07:09:18;;;;;;;10.88;4.78;;;37.00;39.80;;;;;;4994054;28;20141;-75
2022/07/19 07:11:47;;;;;;;9.60;4.30;;;37.00;40.40;;;;;;5011477;28;20054;-75
2022/07/19 07:14:16;;;;;;;12.48;4.50;;;37.10;45.30;;;;;;5011672;28;20052;-75
2022/07/19 07:16:42;;;;;;;12.68;4.50;;;37.00;39.90;;;;;;4993692;28;20050;-75
2022/07/19 07:19:08;;;;;;;9.93;4.40;;;37.10;39.80;;;;;;4993595;28;20056;-75
2022/07/19 07:21:34;;;;;;;5.75;4.10;;;37.00;40.10;;;;;;5010282;28;20042;-75
2022/07/19 07:24:10;;;;;;;9.95;4.32;;;36.90;40.80;;;;;;4935550;29;20047;-74
2022/07/19 07:26:53;;;;;;;9.20;4.10;;;36.70;40.80;;;;;;4935791;29;20055;-75
2022/07/19 07:29:19;;;;;;;12.40;4.10;;;36.40;41.40;;;;;;4934342;29;20530;-75
2022/07/19 07:31:50;;;;;;;13.48;4.10;;;36.10;42.10;;;;;;4950676;29;20063;-75
2022/07/19 07:34:23;;;;;;;11.75;4.10;;;35.90;42.50;;;;;;4935124;29;20222;-75
2022/07/19 07:36:49;;;;;;;12.18;3.92;;;35.80;42.90;;;;;;4937842;29;20586;-75
2022/07/19 07:39:15;;;;;;;10.77;3.90;;;35.60;43.60;;;;;;4937394;29;20063;-74
2022/07/19 07:41:42;;;;;;;6.38;4.00;;;35.50;43.70;;;;;;4951598;29;20130;-74
2022/07/19 07:44:11;;;;;;;7.40;4.15;;;35.50;48.00;;;;;;4922113;29;20059;-75
2022/07/19 07:46:37;;;;;;;11.73;4.03;;;35.20;44.00;;;;;;4937735;29;20087;-75
2022/07/19 07:49:04;;;;;;;7.25;4.18;;;35.10;44.10;;;;;;4921722;29;20059;-75
2022/07/19 07:51:31;;;;;;;9.40;4.03;;;35.00;44.10;;;;;;4938403;29;20052;-75
2022/07/19 07:54:01;;;;;;;7.50;3.80;;;34.80;44.50;;;;;;4937876;29;20102;-75
2022/07/19 07:56:27;;;;;;;11.25;4.25;;;34.90;44.50;;;;;;4937531;29;20059;-75
2022/07/19 07:58:52;;;;;;;9.05;3.95;;;34.70;44.70;;;;;;4905789;29;20154;-75
2022/07/19 08:01:18;;;;;;;8.75;4.07;;;34.80;45.00;;;;;;4921639;29;20155;-74
2022/07/19 08:03:44;;;;;;;10.35;4.30;;;34.90;45.00;;;;;;4937226;29;20055;-74
2022/07/19 08:06:10;;;;;;;13.32;4.70;;;34.90;45.10;;;;;;4937092;29;20059;-75
2022/07/19 08:08:37;;;;;;;12.27;4.60;;;35.00;45.30;;;;;;4953319;29;20114;-75
2022/07/19 08:11:03;;;;;;;7.68;4.68;;;34.90;45.40;;;;;;4936303;29;20058;-75
2022/07/19 08:13:32;;;;;;;16.08;4.57;;;34.80;45.30;;;;;;4936554;29;20059;-75
2022/07/19 08:16:00;;;;;;;12.88;4.13;;;34.70;45.80;;;;;;4937238;29;20450;-75
2022/07/19 08:18:26;;;;;;;8.55;4.70;;;34.30;45.30;;;;;;4937367;29;20054;-75
2022/07/19 08:20:53;;;;;;;15.27;4.97;;;34.80;48.90;;;;;;4953019;29;20406;-75
2022/07/19 08:23:18;;;;;;;13.88;5.47;;;34.90;45.50;;;;;;4937167;29;20192;-75
2022/07/19 08:25:44;;;;;;;9.70;4.72;;;34.90;46.10;;;;;;4937187;29;20055;-75
2022/07/19 08:28:09;;;;;;;13.68;5.30;;;34.90;45.30;;;;;;4982362;28;20463;-75
2022/07/19 08:30:45;;;;;;;12.45;4.93;;;;;;;;;;5013411;28;20054;-74
2022/07/19 08:33:10;;;;;;;13.45;4.85;;;34.50;44.40;;;;;;4996233;28;20057;-75
2022/07/19 08:35:36;;;;;;;10.23;4.82;;;34.60;45.60;;;;;;4979710;28;20132;-74
2022/07/19 08:38:02;;;;;;;12.73;4.97;;;34.70;45.40;;;;;;4995689;28;20101;-75
2022/07/19 08:40:32;;;;;;;9.70;4.05;;;34.60;45.60;;;;;;5013624;28;20054;-74
2022/07/19 08:42:58;;;;;;;9.82;3.72;;;34.70;46.40;;;;;;4979794;28;20057;-75
2022/07/19 08:45:29;;;;;;;7.22;3.78;;;34.70;45.70;;;;;;4979686;28;20140;-75
2022/07/19 08:47:56;;;;;;;12.77;4.40;;;34.70;45.60;;;;;;4995118;28;20057;-75
2022/07/19 08:50:22;;;;;;;10.57;3.40;;;34.70;45.70;;;;;;4979589;28;20046;-75
2022/07/19 08:52:49;;;;;;;4.22;3.08;;;34.60;45.50;;;;;;5013099;28;20503;-75
2022/07/19 08:55:15;;;;;;;13.80;3.30;;;34.60;45.60;;;;;;5013284;28;20109;-74
2022/07/19 08:57:57;;;;;;;8.13;3.30;;;34.50;45.60;;;;;;5012468;28;20081;-75
2022/07/19 09:00:26;;;;;;;7.00;3.20;;;34.50;45.70;;;;;;4978956;28;20053;-75
2022/07/19 09:03:13;;;;;;;7.25;3.03;;;34.60;46.40;;;;;;4979030;28;20057;-74
2022/07/19 09:05:39;;;;;;;8.30;3.22;;;34.60;46.30;;;;;;4978921;28;20050;-75
2022/07/19 09:08:16;;;;;;;7.15;3.20;;;34.60;46.50;;;;;;4980048;28;20058;-75
2022/07/19 09:13:32;;;;;;;11.07;3.55;;;34.70;46.00;;;;;;5011644;28;20045;-74
2022/07/19 09:15:58;;;;;;;8.98;3.30;;;34.80;46.20;;;;;;4994815;28;20081;-76
2022/07/19 09:18:31;;;;;;;10.60;3.35;;;34.70;46.10;;;;;;5012436;28;20135;-75
2022/07/19 09:21:02;;;;;;;13.20;3.35;;;34.80;45.90;;;;;;4978642;28;20112;-74
2022/07/19 09:23:28;;;;;;;6.65;2.97;;;34.80;45.60;;;;;;4978349;28;20547;-75
2022/07/19 09:25:56;;;;;;;12.25;3.30;;;35.00;49.10;;;;;;4978700;28;20101;-75
2022/07/19 09:28:26;;;;;;;6.95;2.80;;;34.80;45.50;;;;;;4995133;28;20077;-76
2022/07/19 09:30:57;;;;;;;8.63;3.17;;;34.90;48.50;;;;;;4995097;28;20050;-75
2022/07/19 09:33:27;;;;;;;10.98;3.28;;;34.90;45.20;;;;;;4995131;28;20049;-75
2022/07/19 09:35:56;;;;;;;6.70;3.00;;;34.90;44.90;;;;;;4978976;28;20054;-75
2022/07/19 09:38:36;;;;;;;11.45;3.20;;;35.00;47.60;;;;;;4995191;28;20049;-76
2022/07/19 09:41:14;;;;;;;10.85;3.10;;;34.80;44.40;;;;;;4995615;28;20056;-76
2022/07/19 09:43:58;;;;;;;17.13;3.30;;;34.80;45.20;;;;;;5013037;28;20120;-77
2022/07/19 09:46:38;;;;;;;14.35;3.30;;;34.80;44.50;;;;;;4995217;28;20088;-76
2022/07/19 09:49:08;;;;;;;8.88;3.05;;;34.80;46.50;;;;;;4978792;28;20092;-76
2022/07/19 09:51:40;;;;;;;8.43;3.30;;;34.80;44.20;;;;;;4994749;28;20057;-76
2022/07/19 09:54:10;;;;;;;8.23;3.20;;;35.00;44.50;;;;;;5012132;28;20062;-76
2022/07/19 09:56:37;;;;;;;5.15;3.00;;;34.90;45.10;;;;;;5012750;28;20374;-76
2022/07/19 09:59:03;;;;;;;8.30;3.03;;;35.30;45.30;;;;;;4993262;28;20085;-76
2022/07/19 10:01:30;;;;;;;9.43;3.00;;;35.10;44.60;;;;;;4994632;28;20078;-76
2022/07/19 10:04:04;;;;;;;8.30;2.78;;;35.10;43.30;;;;;;4995594;28;20050;-76
2022/07/19 10:06:30;;;;;;;12.45;2.83;;;35.00;43.90;;;;;;5014110;28;20595;-76
2022/07/19 10:08:57;;;;;;;7.18;3.00;;;35.10;44.30;;;;;;4998027;28;20053;-76
2022/07/19 10:11:24;;;;;;;4.05;2.80;;;35.10;44.80;;;;;;5014130;28;20377;-76
2022/07/19 10:13:50;;;;;;;10.02;3.13;;;35.20;44.40;;;;;;5032083;28;20053;-75
2022/07/19 10:16:22;;;;;;;6.50;2.97;;;35.20;44.30;;;;;;4997710;28;20057;-75
2022/07/19 10:19:26;;;;;;;7.88;3.10;;;35.50;43.40;;;;;;5010612;28;20385;-76
2022/07/19 10:21:52;;;;;;;7.50;2.75;;;35.50;43.80;;;;;;4953649;28;20409;-76
2022/07/19 10:24:56;;;;;;;9.07;2.75;;;35.50;42.90;;;;;;4953734;28;20046;-76
2022/07/19 10:27:24;;;;;;;5.63;2.65;;;35.50;41.70;;;;;;4939872;29;20391;-76
2022/07/19 10:29:56;;;;;;;4.82;2.83;;;35.40;42.20;;;;;;4935059;28;20051;-76
2022/07/19 10:32:31;;;;;;;7.38;3.05;;;35.40;41.80;;;;;;4950523;28;20074;-76
2022/07/19 10:35:16;;;;;;;;;;;35.30;41.40;;;;;;4954079;28;20055;-76
2022/07/19 10:37:43;;;;;;;7.05;2.80;;;35.40;41.80;;;;;;4952060;28;20494;-76
2022/07/19 10:40:09;;;;;;;10.30;2.80;;;35.40;43.10;;;;;;4953238;28;20061;-76
2022/07/19 10:42:35;;;;;;;11.80;2.85;;;35.50;41.20;;;;;;4952249;28;20051;-78
2022/07/19 10:45:00;;;;;;;8.30;2.70;;;35.60;41.50;;;;;;4952650;28;20058;-77
2022/07/19 10:47:58;;;;;;;5.28;2.50;;;35.60;41.10;;;;;;4968809;28;20417;-77
2022/07/19 10:50:26;;;;;;;8.32;2.90;;;35.70;41.90;;;;;;4933328;29;20132;-77
2022/07/19 10:52:52;;;;;;;7.45;2.55;;;35.80;40.50;;;;;;4917918;29;20070;-77
2022/07/19 10:55:18;;;;;;;5.85;2.67;;;35.80;40.20;;;;;;4928759;28;20050;-77
2022/07/19 10:57:49;;;;;;;7.28;3.40;;;35.80;40.00;;;;;;4972285;28;20500;-77
2022/07/19 11:00:20;;;;;;;8.52;2.50;;;35.80;39.80;;;;;;4972593;28;20051;-76
2022/07/19 11:02:48;;;;;;;12.52;2.75;;;35.80;40.00;;;;;;4980812;28;20094;-77
2022/07/19 11:05:24;;;;;;;10.75;2.60;;;35.90;39.80;;;;;;4953896;28;20171;-76
2022/07/19 11:07:52;;;;;;;12.25;2.60;;;35.90;39.50;;;;;;4953906;28;20047;-76
2022/07/19 11:10:29;;;;;;;7.18;2.80;;;36.00;40.50;;;;;;4939843;28;20085;-77
2022/07/19 11:12:57;;;;;;;6.38;2.63;;;36.00;40.10;;;;;;4941138;28;20053;-77
2022/07/19 11:15:27;;;;;;;6.18;2.83;;;35.90;39.90;;;;;;4956737;28;20568;-77
2022/07/19 11:17:56;;;;;;;8.48;2.50;;;36.10;40.20;;;;;;4972811;28;20133;-76
2022/07/19 11:20:26;;;;;;;11.32;2.30;;;36.10;39.00;;;;;;4940522;28;20063;-77
2022/07/19 11:22:57;;;;;;;9.57;2.90;;;36.10;38.30;;;;;;4973851;28;20125;-76
2022/07/19 11:25:25;;;;;;;12.90;2.40;;;33.80;36.80;;;;;;4941240;28;20061;-76
2022/07/19 11:27:51;;;;;;;5.80;2.38;;;36.10;38.40;;;;;;4956752;28;20538;-76
2022/07/19 11:30:16;;;;;;;5.82;2.30;;;36.10;38.30;;;;;;4995161;28;20050;-77
2022/07/19 11:32:42;;;;;;;7.32;2.17;;;36.20;38.10;;;;;;4995618;28;20464;-77
2022/07/19 11:35:11;;;;;;;8.07;2.30;;;36.20;38.00;;;;;;4978226;28;20055;-77
2022/07/19 11:37:39;;;;;;;7.88;2.53;;;36.30;37.60;;;;;;4978587;28;20089;-77
2022/07/19 11:40:06;;;;;;;9.07;2.33;;;36.30;37.60;;;;;;4978468;28;20058;-77
2022/07/19 11:42:37;;;;;;;6.00;2.20;;;36.40;37.60;;;;;;4995459;28;20054;-77
2022/07/19 11:45:12;;;;;;;9.43;2.38;;;36.40;37.60;;;;;;4978470;28;20420;-77
2022/07/19 11:47:47;;;;;;;7.45;2.35;;;36.50;37.70;;;;;;4978078;28;20060;-77
2022/07/19 11:50:14;;;;;;;6.90;2.50;;;36.60;37.70;;;;;;4977872;28;20057;-77
2022/07/19 11:52:44;;;;;;;7.88;2.25;;;36.60;37.90;;;;;;4995556;28;20065;-77
2022/07/19 11:55:14;;;;;;;7.10;2.38;;;36.70;37.10;;;;;;4995617;28;20374;-76
2022/07/19 11:57:40;;;;;;;5.47;2.22;;;36.80;37.40;;;;;;4978043;28;20054;-77
2022/07/19 12:00:09;;;;;;;3.60;2.30;;;36.80;37.10;;;;;;4995498;28;20062;-76
2022/07/19 12:03:03;;;;;;;8.35;2.20;;;36.90;37.50;;;;;;4968129;28;20665;-77
2022/07/19 12:05:32;;;;;;;6.72;2.30;;;37.00;35.90;;;;;;4997149;28;20046;-77
2022/07/19 12:08:00;;;;;;;14.02;2.30;;;37.10;36.60;;;;;;4981545;28;20064;-78
2022/07/19 12:10:53;;;;;;;11.18;2.00;;;37.20;36.10;;;;;;4980625;28;20133;-77
2022/07/19 12:13:33;;;;;;;7.63;2.00;;;37.30;35.20;;;;;;4993810;28;20062;-77
2022/07/19 12:16:10;;;;;;;6.32;2.20;;;37.40;35.90;;;;;;4980106;28;20515;-77
2022/07/19 12:18:48;;;;;;;6.25;2.30;;;37.40;34.20;;;;;;4996396;28;20057;-77
2022/07/19 12:21:21;;;;;;;9.32;2.10;;;37.50;35.70;;;;;;5013902;28;20463;-77
2022/07/19 12:24:22;;;;;;;5.15;2.22;;;37.50;35.40;;;;;;4996804;28;20049;-77
2022/07/19 12:26:51;;;;;;;7.18;2.20;;;37.60;35.00;;;;;;4996685;28;20053;-78
2022/07/19 12:29:32;;;;;;;5.57;2.17;;;37.60;34.70;;;;;;4996826;28;20050;-78
2022/07/19 12:32:43;;;;;;;7.90;2.28;;;37.70;34.40;;;;;;5014456;28;20053;-78
2022/07/19 12:35:12;;;;;;;5.85;2.00;;;37.70;34.30;;;;;;4980281;28;20506;-77
2022/07/19 12:37:46;;;;;;;4.10;2.00;;;37.70;34.20;;;;;;5014587;28;20054;-77
2022/07/19 12:40:14;;;;;;;7.75;2.10;;;37.70;34.10;;;;;;5014286;28;20128;-78
2022/07/19 12:42:43;;;;;;;5.97;2.10;;;37.70;33.80;;;;;;4996903;28;20046;-77
2022/07/19 12:45:17;;;;;;;7.07;2.20;;;37.80;34.00;;;;;;4996802;28;20050;-77
2022/07/19 12:47:44;;;;;;;6.18;2.10;;;37.90;33.90;;;;;;4996489;28;20065;-77
2022/07/19 12:50:32;;;;;;;4.72;1.90;;;37.90;34.00;;;;;;5014022;28;20046;-77
2022/07/19 12:53:00;;;;;;;9.82;1.90;;;38.00;33.60;;;;;;4996718;28;20050;-77
2022/07/19 12:55:27;;;;;;;4.28;1.90;;;38.00;33.10;;;;;;4994921;28;20101;-78
2022/07/19 12:57:53;;;;;;;4.90;1.83;;;38.10;33.40;;;;;;4996139;28;20077;-78
2022/07/19 13:00:22;;;;;;;6.03;2.03;;;38.20;33.10;;;;;;4979955;28;20058;-77